createdAt,value
2022-12-26T00:03:19.379Z,99990.25
2022-12-26T00:08:21.505Z,99967.59
2022-12-26T00:13:39.466Z,99967.72
2022-12-26T00:18:42.609Z,99979.59
2022-12-26T00:23:45.237Z,99978.88
2022-12-26T00:28:46.254Z,99978.63
2022-12-26T00:33:47.709Z,99983.91
2022-12-26T00:38:50.893Z,99979.53
2022-12-26T00:43:52.295Z,99979.31
2022-12-26T00:48:53.136Z,99984.47
2022-12-26T00:53:55.167Z,99969.03
2022-12-26T00:58:55.893Z,99975.97
2022-12-26T01:03:58.779Z,99964.75
2022-12-26T01:09:00.943Z,99974.34
2022-12-26T01:14:01.603Z,99981.41
2022-12-26T01:19:02.286Z,99976.16
2022-12-26T01:24:04.679Z,99983.22
2022-12-26T01:29:05.386Z,99972.66
2022-12-26T01:34:06.047Z,99960.59
2022-12-26T01:39:08.055Z,99955.44
2022-12-26T01:44:47.405Z,99960.59
2022-12-26T01:49:51.643Z,99956.41
2022-12-26T01:54:55.916Z,99946.00
2022-12-26T01:59:58.986Z,99965.03
2022-12-26T02:05:17.089Z,99958.97
2022-12-26T02:10:25.627Z,99944.06
2022-12-26T02:15:26.970Z,99954.69
2022-12-26T02:20:30.146Z,99960.78
2022-12-26T02:25:51.506Z,99959.03
2022-12-26T02:30:58.208Z,99968.75
2022-12-26T02:36:15.847Z,99969.66
2022-12-26T02:41:26.754Z,99953.94
2022-12-26T02:46:51.399Z,99945.06
2022-12-26T02:52:18.853Z,99945.16
2022-12-26T02:57:42.541Z,99953.84
2022-12-26T03:03:08.012Z,99961.69
2022-12-26T03:08:31.315Z,99967.56
2022-12-26T03:13:37.134Z,99951.03
2022-12-26T03:18:57.881Z,99955.47
2022-12-26T03:24:00.817Z,99945.75
2022-12-26T03:29:18.874Z,99946.75
2022-12-26T03:34:21.370Z,99933.66
2022-12-26T03:39:54.087Z,99931.81
2022-12-26T03:45:19.065Z,99951.59
2022-12-26T03:51:02.473Z,99943.94
2022-12-26T03:56:26.628Z,99936.78
2022-12-26T04:01:48.432Z,99955.00
2022-12-26T04:07:11.666Z,99952.84
2022-12-26T04:12:36.210Z,99957.19
2022-12-26T04:18:06.082Z,99963.25
2022-12-26T04:23:32.350Z,99964.22
2022-12-26T04:28:50.957Z,99974.50
2022-12-26T04:34:12.179Z,99983.34
2022-12-26T04:39:35.395Z,99967.75
2022-12-26T04:44:37.892Z,99964.66
2022-12-26T04:50:01.725Z,99969.97
2022-12-26T04:55:03.908Z,99974.19
2022-12-26T05:00:06.254Z,99968.84
2022-12-26T05:05:25.015Z,99966.53
2022-12-26T05:10:28.971Z,99971.09
2022-12-26T05:15:49.716Z,99957.72
2022-12-26T05:21:07.952Z,99939.78
2022-12-26T05:26:33.998Z,99953.41
2022-12-26T05:31:36.876Z,99941.38
2022-12-26T05:36:40.720Z,99941.44
2022-12-26T05:41:42.876Z,99947.91
2022-12-26T05:46:43.695Z,99967.75
2022-12-26T05:51:44.369Z,99944.44
2022-12-26T05:56:49.509Z,99937.41
2022-12-26T06:01:50.489Z,99940.66
2022-12-26T06:06:52.283Z,99954.75
2022-12-26T06:11:54.272Z,99943.50
2022-12-26T06:16:55.105Z,99941.88
2022-12-26T06:21:55.839Z,99940.22
2022-12-26T06:26:57.816Z,99922.94
2022-12-26T06:31:58.562Z,99920.06
2022-12-26T06:36:59.512Z,99931.19
2022-12-26T06:42:01.526Z,99927.84
2022-12-26T06:47:03.206Z,99953.44
2022-12-26T06:52:03.986Z,99963.66
2022-12-26T06:57:06.232Z,99974.47
2022-12-26T07:02:07.348Z,99975.25
2022-12-26T07:07:08.100Z,99994.50
2022-12-26T07:12:10.112Z,100006.97
2022-12-26T07:17:11.261Z,99997.88
2022-12-26T07:22:11.927Z,100007.72
2022-12-26T07:27:13.951Z,100015.28
2022-12-26T07:32:14.726Z,100016.13
2022-12-26T07:37:15.471Z,100009.47
2022-12-26T07:42:17.474Z,100019.03
2022-12-26T07:47:18.129Z,100026.75
2022-12-26T07:52:19.913Z,100020.78
2022-12-26T07:57:47.332Z,100034.97
2022-12-26T08:02:42.714Z,100037.59
2022-12-26T08:07:43.491Z,100029.69
2022-12-26T08:12:45.522Z,100017.28
2022-12-26T08:17:46.235Z,100024.28
2022-12-26T08:22:46.963Z,100045.44
2022-12-26T08:27:49.031Z,100041.50
2022-12-26T08:32:51.546Z,100035.03
2022-12-26T08:37:52.197Z,100037.88
2022-12-26T08:43:12.217Z,100039.94
2022-12-26T08:48:16.023Z,100018.28
2022-12-26T08:53:16.758Z,100031.97
2022-12-26T08:58:18.806Z,100033.56
2022-12-26T09:03:20.604Z,100040.56
2022-12-26T09:08:21.361Z,100026.59
2022-12-26T09:13:23.858Z,100025.28
2022-12-26T09:18:24.812Z,100032.97
2022-12-26T09:23:25.485Z,100038.53
2022-12-26T09:28:27.643Z,100047.44
2022-12-26T09:33:28.377Z,100044.22
2022-12-26T09:38:30.176Z,100031.84
2022-12-26T09:43:54.050Z,100041.84
2022-12-26T09:49:00.238Z,100058.75
2022-12-26T09:54:04.939Z,100054.84
2022-12-26T09:59:14.433Z,100038.38
2022-12-26T10:04:28.898Z,100028.19
2022-12-26T10:09:51.743Z,100017.97
2022-12-26T10:15:00.131Z,100015.41
2022-12-26T10:20:13.392Z,100023.88
2022-12-26T10:25:19.337Z,100021.72
2022-12-26T10:30:24.609Z,100037.13
2022-12-26T10:35:32.128Z,100025.75
2022-12-26T10:40:41.792Z,100022.72
2022-12-26T10:45:50.335Z,100020.06
2022-12-26T10:50:51.261Z,99999.06
2022-12-26T10:55:52.020Z,100015.56
2022-12-26T11:00:54.124Z,100018.06
2022-12-26T11:06:07.551Z,100024.72
2022-12-26T11:11:14.073Z,100014.13
2022-12-26T11:16:26.504Z,100022.44
2022-12-26T11:21:29.372Z,100020.25
2022-12-26T11:26:30.600Z,100016.00
2022-12-26T11:31:33.090Z,100013.25
2022-12-26T11:36:34.317Z,100016.63
2022-12-26T11:41:39.913Z,100027.09
2022-12-26T11:46:47.042Z,100004.22
2022-12-26T11:51:54.144Z,99991.97
2022-12-26T11:57:11.942Z,99984.91
2022-12-26T12:02:29.441Z,99996.66
2022-12-26T12:07:41.386Z,100009.41
2022-12-26T12:12:48.337Z,100004.13
2022-12-26T12:17:59.959Z,100007.41
2022-12-26T12:23:21.551Z,100012.00
2022-12-26T12:28:52.863Z,100001.72
2022-12-26T12:34:03.494Z,99980.34
2022-12-26T12:39:13.906Z,99982.09
2022-12-26T12:44:23.006Z,99978.84
2022-12-26T12:49:38.964Z,99983.91
2022-12-26T12:55:19.783Z,99978.78
2022-12-26T13:00:23.647Z,99986.78
2022-12-26T13:05:39.346Z,99994.06
2022-12-26T13:10:49.470Z,100084.38
2022-12-26T13:15:55.528Z,100120.13
2022-12-26T13:21:01.972Z,100130.53
2022-12-26T13:26:10.595Z,100117.47
2022-12-26T13:31:11.537Z,100125.59
2022-12-26T13:36:38.133Z,100120.56
2022-12-26T13:41:58.542Z,100113.75
2022-12-26T13:47:00.767Z,100108.44
2022-12-26T13:52:32.332Z,100098.09
2022-12-26T13:57:40.204Z,100093.69
2022-12-26T14:03:19.453Z,100092.72
2022-12-26T14:08:33.268Z,100103.06
2022-12-26T14:13:52.470Z,100091.06
2022-12-26T14:19:01.658Z,100090.97
2022-12-26T14:24:18.280Z,100100.53
2022-12-26T14:29:26.050Z,100094.53
2022-12-26T14:34:40.206Z,100093.69
2022-12-26T14:39:58.642Z,100097.97
2022-12-26T14:45:01.450Z,100110.38
2022-12-26T14:50:35.865Z,100119.72
2022-12-26T14:55:52.266Z,100118.13
2022-12-26T15:00:54.306Z,100112.88
2022-12-26T15:06:02.658Z,100115.38
2022-12-26T15:11:52.881Z,100130.25
2022-12-26T15:17:16.001Z,100125.84
2022-12-26T15:22:46.064Z,100144.22
2022-12-26T15:28:23.619Z,100140.44
2022-12-26T15:33:32.781Z,100146.47
2022-12-26T15:38:41.356Z,100144.72
2022-12-26T15:44:02.608Z,100152.38
2022-12-26T15:49:32.888Z,100144.91
2022-12-26T15:55:03.025Z,100149.38
2022-12-26T16:00:13.596Z,100146.84
2022-12-26T16:05:34.565Z,100150.19
2022-12-26T16:10:36.814Z,100157.16
2022-12-26T16:15:46.547Z,100141.41
2022-12-26T16:21:09.146Z,100150.91
2022-12-26T16:26:18.472Z,100158.00
2022-12-26T16:31:22.253Z,100168.31
2022-12-26T16:36:26.339Z,100158.81
2022-12-26T16:41:29.367Z,100148.56
2022-12-26T16:46:31.845Z,100145.41
2022-12-26T16:51:41.472Z,100154.28
2022-12-26T16:56:42.631Z,100156.66
2022-12-26T17:01:47.771Z,100160.03
2022-12-26T17:06:53.181Z,100163.56
2022-12-26T17:11:57.078Z,100154.69
2022-12-26T17:16:59.476Z,100154.59
2022-12-26T17:22:21.408Z,100143.28
2022-12-26T17:27:24.280Z,100142.44
2022-12-26T17:32:34.979Z,100130.16
2022-12-26T17:37:37.576Z,100143.16
2022-12-26T17:42:45.434Z,100135.22
2022-12-26T17:47:46.606Z,100131.59
2022-12-26T17:52:49.314Z,100136.63
2022-12-26T17:57:50.024Z,100135.84
2022-12-26T18:02:50.913Z,100133.94
2022-12-26T18:07:53.543Z,100144.06
2022-12-26T18:12:54.354Z,100158.34
2022-12-26T18:17:55.374Z,100142.38
2022-12-26T18:22:58.065Z,100133.69
2022-12-26T18:28:00.436Z,100121.56
2022-12-26T18:33:01.135Z,100118.75
2022-12-26T18:38:03.285Z,100141.13
2022-12-26T18:43:05.277Z,100137.63
2022-12-26T18:48:07.713Z,100133.47
2022-12-26T18:53:09.786Z,100123.25
2022-12-26T18:58:11.309Z,100113.56
2022-12-26T19:03:12.051Z,100101.63
2022-12-26T19:08:14.091Z,100094.97
2022-12-26T19:13:15.662Z,100103.13
2022-12-26T19:18:16.760Z,100098.81
2022-12-26T19:23:18.799Z,100100.44
2022-12-26T19:28:19.512Z,100107.47
2022-12-26T19:33:20.230Z,100101.38
2022-12-26T19:38:22.272Z,100109.22
2022-12-26T19:43:22.939Z,100109.34
2022-12-26T19:48:23.688Z,100109.38
2022-12-26T19:53:25.716Z,100103.97
2022-12-26T19:58:30.912Z,100122.22
2022-12-26T20:03:31.610Z,100129.13
2022-12-26T20:08:33.698Z,100156.06
2022-12-26T20:13:35.111Z,100156.00
2022-12-26T20:18:36.497Z,100218.50
2022-12-26T20:23:38.591Z,100297.22
2022-12-26T20:28:40.194Z,100302.09
2022-12-26T20:33:43.358Z,100306.97
2022-12-26T20:38:46.307Z,100310.63
2022-12-26T20:43:48.658Z,100329.78
2022-12-26T20:48:49.963Z,100315.94
2022-12-26T20:53:52.577Z,100238.25
2022-12-26T20:58:53.400Z,100221.91
2022-12-26T21:03:55.617Z,100256.41
2022-12-26T21:08:58.222Z,100259.00
2022-12-26T21:14:01.188Z,100302.22
2022-12-26T21:19:02.308Z,100307.34
2022-12-26T21:24:07.330Z,100326.38
2022-12-26T21:29:09.863Z,100330.75
2022-12-26T21:34:13.471Z,100324.72
2022-12-26T21:39:15.813Z,100324.78
2022-12-26T21:44:16.656Z,100342.06
2022-12-26T21:49:17.352Z,100360.25
2022-12-26T21:54:40.023Z,100386.19
2022-12-26T21:59:58.116Z,100409.53
2022-12-26T22:04:59.389Z,100432.03
2022-12-26T22:10:01.497Z,100447.56
2022-12-26T22:15:02.294Z,100458.75
2022-12-26T22:20:02.988Z,100460.44
2022-12-26T22:25:05.678Z,100478.47
2022-12-26T22:30:07.112Z,100483.56
2022-12-26T22:35:13.239Z,100507.63
2022-12-26T22:40:18.739Z,100514.47
2022-12-26T22:45:19.513Z,100528.16
2022-12-26T22:50:20.192Z,100540.16
2022-12-26T22:55:22.213Z,100552.25
2022-12-26T23:00:22.879Z,100560.84
2022-12-26T23:05:24.138Z,100560.88
2022-12-26T23:10:27.128Z,100581.47
2022-12-26T23:15:29.724Z,100592.72
2022-12-26T23:20:53.250Z,100613.38
2022-12-26T23:25:55.245Z,100620.25
2022-12-26T23:30:57.101Z,100627.94
2022-12-26T23:35:58.099Z,100630.38
2022-12-26T23:41:00.158Z,100640.44
2022-12-26T23:46:01.395Z,100636.00
2022-12-26T23:51:03.433Z,100641.13
2022-12-26T23:56:08.341Z,100642.78
